Central Il Rgnl Arpt at Bloomington-Normal Airport
KBMI : now visible

Airfield :











YOU CAN JOIN US ON...

 
LOGIN :

Register | Disclaimer

   EN    FR    IT 

 









Legend :    VFR   Marginal VFR   IFR   Intensive IFR   Very Intensive IFR
Visi :
Ceiling :
>= 8 km
>= 3000ft
5 to 8 km
1000 to 3000 ft
1500m to 5 km
500 to 1000 ft
800 to 1500m
200 to 500 ft
< 800m
< 200 ft
Symbols :   Thunderstorms  Fog  Heavy snow  Heavy precipitations  Wind > 20 kt






- Airport Elevation : 871 ft
- IATA code : BMI


KBMI - Central Il Rgnl Arpt at Bloomington-Normal

CURRENT METAR :
  • 031856Z 18007KT 10SM CLR 27/17 A2984 RMK AO2 WSHFT 1811 SLP092 T02670172

EXPIRED METARs :
  • 031829Z 15011KT 10SM CLR 26/17 A2983 RMK AO2 WSHFT 1811
  • 031756Z 00000KT 10SM CLR 26/18 A2989 RMK AO2 PRESFR SLP113 T02560178 10278 20222 58011
  • 031656Z 30006KT 10SM CLR 26/18 A2994 RMK AO2 LTG DSNT NW SLP126 T02610178

TAF KBMI
Valid from the 03 at 18:00 until the 04 at 18:00 UTC


031744Z 0318/0418 VRB06KT P6SM VCSH SCT050 BKN100
FM040000 35005KT P6SM BKN250
FM040800 VRB05KT 4SM BR SCT250
FM041400 VRB04KT P6SM SCT025 BKN035
KZAU FIR / North America



MET'MAP, your aeronautical weather chart ! - Copyright ORBIFLY December 2007 - Disclaimer

ORBIFLY MET'MAP TEAM :

Programming & Development : Alexandra Zaïnal
Concept & original design : Baudouin d'Aumeries
Assistance for programming : Marc-Olivier Méhu
Technical & hardware support : Manuel Goepfert

Contact : metmap@orbifly.com




SOURCES & CREDITS :

   NOAA       Earth
Advisory